createdAt,value
2018-07-28T00:01:24.600Z,99320.49
2018-07-28T00:03:53.746Z,99321.28
2018-07-28T00:06:22.721Z,99324.23
2018-07-28T00:08:51.684Z,99322.87
2018-07-28T00:11:20.725Z,99318.98
2018-07-28T00:13:49.704Z,99322.80
2018-07-28T00:16:18.712Z,99325.79
2018-07-28T00:18:47.740Z,99328.52
2018-07-28T00:21:16.816Z,99331.25
2018-07-28T00:23:45.776Z,99326.36
2018-07-28T00:26:18.244Z,99335.45
2018-07-28T00:28:48.944Z,99343.44
2018-07-28T00:31:18.103Z,99344.30
2018-07-28T00:33:47.502Z,99345.77
2018-07-28T00:36:16.576Z,99344.43
2018-07-28T00:38:45.648Z,99348.85
2018-07-28T00:41:14.689Z,99339.86
2018-07-28T00:43:43.716Z,99346.21
2018-07-28T00:46:12.685Z,99335.02
2018-07-28T00:48:41.832Z,99333.99
2018-07-28T00:51:10.811Z,99336.73
2018-07-28T00:53:39.849Z,99339.20
2018-07-28T00:56:08.842Z,99340.34
2018-07-28T00:58:37.861Z,99332.45
2018-07-28T01:01:06.892Z,99336.33
2018-07-28T01:03:35.857Z,99335.27
2018-07-28T01:06:04.836Z,99324.89
2018-07-28T01:08:33.861Z,99322.46
2018-07-28T01:11:02.893Z,99318.36
2018-07-28T01:13:31.862Z,99327.91
2018-07-28T01:16:00.914Z,99324.31
2018-07-28T01:18:29.895Z,99319.93
2018-07-28T01:20:58.907Z,99315.54
2018-07-28T01:23:27.947Z,99312.22
2018-07-28T01:25:56.904Z,99308.89
2018-07-28T01:28:25.879Z,99312.11
2018-07-28T01:30:54.847Z,99308.21
2018-07-28T01:33:23.835Z,99318.48
2018-07-28T01:35:52.950Z,99313.50
2018-07-28T01:38:22.021Z,99311.81
2018-07-28T01:40:50.988Z,99312.86
2018-07-28T01:43:20.017Z,99316.08
2018-07-28T01:45:49.111Z,99312.73
2018-07-28T01:48:18.188Z,99313.73
2018-07-28T01:50:47.225Z,99317.23
2018-07-28T01:53:16.187Z,99318.88
2018-07-28T01:55:45.220Z,99312.05
2018-07-28T01:58:14.243Z,99284.01
2018-07-28T02:00:43.280Z,99311.52
2018-07-28T02:03:12.284Z,99311.26
2018-07-28T02:05:41.240Z,99311.30
2018-07-28T02:08:10.325Z,99318.45
2018-07-28T02:10:39.340Z,99314.42
2018-07-28T02:13:08.311Z,99309.23
2018-07-28T02:15:37.359Z,99312.29
2018-07-28T02:18:06.346Z,99309.56
2018-07-28T02:20:35.394Z,99308.48
2018-07-28T02:23:04.551Z,99313.66
2018-07-28T02:25:33.576Z,99309.84
2018-07-28T02:28:02.617Z,99309.84
2018-07-28T02:30:31.600Z,99316.74
2018-07-28T02:33:00.568Z,99312.96
2018-07-28T02:35:29.601Z,99319.83
2018-07-28T02:37:58.617Z,99319.83
2018-07-28T02:40:27.662Z,99326.72
2018-07-28T02:42:56.677Z,99325.45
2018-07-28T02:45:25.725Z,99320.83
2018-07-28T02:47:54.749Z,99327.16
2018-07-28T02:50:23.788Z,99320.89
2018-07-28T02:52:52.869Z,99318.69
2018-07-28T02:55:21.874Z,99320.34
2018-07-28T02:57:50.924Z,99318.44
2018-07-28T03:00:20.070Z,99325.56
2018-07-28T03:02:49.037Z,99325.30
2018-07-28T03:05:18.108Z,99322.59
2018-07-28T03:07:47.151Z,99323.67
2018-07-28T03:10:16.120Z,99324.22
2018-07-28T03:12:45.173Z,99328.01
2018-07-28T03:15:27.568Z,99319.23
2018-07-28T03:17:56.817Z,99320.29
2018-07-28T03:20:26.169Z,99321.91
2018-07-28T03:22:55.220Z,99317.52
2018-07-28T03:25:24.578Z,99322.77
2018-07-28T03:27:53.773Z,99324.73
2018-07-28T03:30:22.881Z,99317.95
2018-07-28T03:32:51.905Z,99324.30
2018-07-28T03:35:20.892Z,99317.74
2018-07-28T03:37:49.997Z,99319.93
2018-07-28T03:40:19.084Z,99321.87
2018-07-28T03:42:48.160Z,99324.60
2018-07-28T03:45:17.237Z,99321.89
2018-07-28T03:47:46.284Z,99323.54
2018-07-28T03:50:15.267Z,99317.84
2018-07-28T03:52:44.422Z,99334.28
2018-07-28T03:55:13.408Z,99327.20
2018-07-28T03:57:42.505Z,99322.02
2018-07-28T04:00:12.885Z,99326.73
2018-07-28T04:02:41.948Z,99322.63
2018-07-28T04:05:12.105Z,99332.04
2018-07-28T04:07:41.433Z,99338.11
2018-07-28T04:10:10.955Z,99343.38
2018-07-28T04:12:40.410Z,99340.70
2018-07-28T04:15:12.224Z,99343.51
2018-07-28T04:17:52.184Z,99346.84
2018-07-28T04:20:21.941Z,99351.03
2018-07-28T04:22:51.064Z,99352.99
2018-07-28T04:25:20.424Z,99342.55
2018-07-28T04:27:49.559Z,99350.53
2018-07-28T04:30:18.531Z,99349.17
2018-07-28T04:32:47.579Z,99353.57
2018-07-28T04:35:17.552Z,99351.91
2018-07-28T04:37:46.709Z,99357.41
2018-07-28T04:40:15.704Z,99353.56
2018-07-28T04:42:44.760Z,99356.00
2018-07-28T04:45:13.863Z,99354.63
2018-07-28T04:47:42.812Z,99349.67
2018-07-28T04:50:11.869Z,99350.78
2018-07-28T04:52:40.896Z,99361.20
2018-07-28T04:55:10.029Z,99359.02
2018-07-28T04:57:39.013Z,99362.31
2018-07-28T05:00:08.068Z,99365.34
2018-07-28T05:02:37.130Z,99362.91
2018-07-28T05:05:06.155Z,99367.30
2018-07-28T05:07:35.261Z,99371.14
2018-07-28T05:10:04.235Z,99368.94
2018-07-28T05:12:33.270Z,99373.85
2018-07-28T05:15:02.316Z,99370.29
2018-07-28T05:17:31.432Z,99371.91
2018-07-28T05:20:00.405Z,99374.41
2018-07-28T05:22:29.391Z,99374.13
2018-07-28T05:24:58.422Z,99375.78
2018-07-28T05:27:27.384Z,99375.52
2018-07-28T05:29:56.474Z,99378.00
2018-07-28T05:32:25.436Z,99377.45
2018-07-28T05:34:54.468Z,99379.07
2018-07-28T05:37:23.439Z,99377.70
2018-07-28T05:39:52.513Z,99376.52
2018-07-28T05:42:21.567Z,99381.77
2018-07-28T05:44:50.689Z,99383.15
2018-07-28T05:47:19.664Z,99382.59
2018-07-28T05:49:48.680Z,99372.45
2018-07-28T05:52:17.716Z,99382.06
2018-07-28T05:54:46.681Z,99395.00
2018-07-28T05:57:15.797Z,99391.97
2018-07-28T05:59:44.847Z,99391.69
2018-07-28T06:02:13.927Z,99394.42
2018-07-28T06:04:42.996Z,99396.89
2018-07-28T06:07:12.036Z,99389.17
2018-07-28T06:09:41.014Z,99392.16
2018-07-28T06:12:09.982Z,99391.23
2018-07-28T06:14:39.097Z,99385.06
2018-07-28T06:17:08.120Z,99388.84
2018-07-28T06:19:37.223Z,99390.28
2018-07-28T06:22:06.269Z,99390.35
2018-07-28T06:24:35.328Z,99390.12
2018-07-28T06:27:04.325Z,99390.12
2018-07-28T06:29:33.332Z,99383.75
2018-07-28T06:32:02.408Z,99385.36
2018-07-28T06:34:31.309Z,99388.36
2018-07-28T06:37:00.430Z,99389.45
2018-07-28T06:39:29.595Z,99388.37
2018-07-28T06:41:58.642Z,99389.06
2018-07-28T06:44:27.609Z,99388.78
2018-07-28T06:46:56.789Z,99385.81
2018-07-28T06:49:25.768Z,99387.02
2018-07-28T06:51:54.852Z,99388.39
2018-07-28T06:54:23.920Z,99387.56
2018-07-28T06:56:53.001Z,99393.90
2018-07-28T06:59:22.174Z,99392.84
2018-07-28T07:01:51.277Z,99388.63
2018-07-28T07:04:20.256Z,99393.91
2018-07-28T07:06:49.205Z,99398.58
2018-07-28T07:09:18.179Z,99394.64
2018-07-28T07:11:47.245Z,99402.05
2018-07-28T07:14:16.332Z,99398.76
2018-07-28T07:16:45.301Z,99404.42
2018-07-28T07:19:14.329Z,99396.38
2018-07-28T07:21:43.299Z,99404.20
2018-07-28T07:24:12.345Z,99395.69
2018-07-28T07:26:41.693Z,99403.64
2018-07-28T07:29:10.714Z,99401.84
2018-07-28T07:31:39.738Z,99403.48
2018-07-28T07:34:08.712Z,99398.98
2018-07-28T07:36:37.772Z,99406.06
2018-07-28T07:39:07.839Z,99402.59
2018-07-28T07:41:36.875Z,99399.44
2018-07-28T07:44:05.981Z,99397.75
2018-07-28T07:46:34.982Z,99404.92
2018-07-28T07:49:04.122Z,99393.94
2018-07-28T07:51:33.206Z,99399.73
2018-07-28T07:54:02.229Z,99400.52
2018-07-28T07:56:31.181Z,99399.81
2018-07-28T07:59:00.202Z,99401.63
2018-07-28T08:01:29.271Z,99396.91
2018-07-28T08:03:58.269Z,99405.06
2018-07-28T08:06:27.415Z,99393.68
2018-07-28T08:08:56.352Z,99405.69
2018-07-28T08:11:25.320Z,99396.88
2018-07-28T08:13:54.353Z,99394.94
2018-07-28T08:16:23.380Z,99399.47
2018-07-28T08:18:52.337Z,99396.07
2018-07-28T08:21:21.368Z,99394.31
2018-07-28T08:23:50.382Z,99399.47
2018-07-28T08:26:19.480Z,99393.24
2018-07-28T08:28:48.529Z,99401.62
2018-07-28T08:31:17.520Z,99402.88
2018-07-28T08:33:46.497Z,99399.48
2018-07-28T08:36:15.521Z,99399.60
2018-07-28T08:38:44.658Z,99402.59
2018-07-28T08:41:13.622Z,99391.59
2018-07-28T08:43:42.586Z,99395.62
2018-07-28T08:46:11.588Z,99393.72
2018-07-28T08:48:40.605Z,99389.75
2018-07-28T08:51:09.629Z,99383.05
2018-07-28T08:53:38.593Z,99378.31
2018-07-28T08:56:07.836Z,99370.81
2018-07-28T08:58:36.808Z,99373.11
2018-07-28T09:01:05.831Z,99370.55
2018-07-28T09:03:34.795Z,99369.23
2018-07-28T09:06:03.820Z,99354.94
2018-07-28T09:08:32.825Z,99367.41
2018-07-28T09:11:01.815Z,99365.92
2018-07-28T09:13:30.824Z,99365.40
2018-07-28T09:15:59.904Z,99360.36
2018-07-28T09:18:28.985Z,99365.96
2018-07-28T09:20:58.038Z,99358.30
2018-07-28T09:23:27.185Z,99354.23
2018-07-28T09:25:56.096Z,99349.36
2018-07-28T09:28:25.096Z,99348.50
2018-07-28T09:30:54.097Z,99337.03
2018-07-28T09:33:23.043Z,99346.36
2018-07-28T09:35:52.060Z,99346.67
2018-07-28T09:38:21.076Z,99350.27
2018-07-28T09:40:50.181Z,99345.25
2018-07-28T09:43:19.363Z,99351.47
2018-07-28T09:45:48.384Z,99347.74
2018-07-28T09:48:17.339Z,99350.06
2018-07-28T09:50:46.361Z,99349.30
2018-07-28T09:53:15.311Z,99348.72
2018-07-28T09:55:44.343Z,99348.55
2018-07-28T09:58:13.592Z,99337.32
2018-07-28T10:00:47.709Z,99341.66
2018-07-28T10:03:16.648Z,99337.58
2018-07-28T10:05:46.002Z,99340.33
2018-07-28T10:08:15.040Z,99339.51
2018-07-28T10:10:44.257Z,99340.17
2018-07-28T10:13:13.500Z,99337.25
2018-07-28T10:15:42.577Z,99335.49
2018-07-28T10:18:11.528Z,99320.27
2018-07-28T10:20:40.500Z,99328.83
2018-07-28T10:23:09.568Z,99330.92
2018-07-28T10:25:38.552Z,99319.89
2018-07-28T10:28:07.639Z,99312.78
2018-07-28T10:30:36.689Z,99311.38
2018-07-28T10:33:05.648Z,99307.48
2018-07-28T10:35:34.656Z,99304.13
2018-07-28T10:38:03.670Z,99307.27
2018-07-28T10:40:32.757Z,99309.27
2018-07-28T10:43:01.765Z,99301.88
2018-07-28T10:45:30.797Z,99295.92
2018-07-28T10:47:59.745Z,99291.41
2018-07-28T10:50:28.767Z,99290.20
2018-07-28T10:52:57.786Z,99284.05
2018-07-28T10:55:26.869Z,99289.42
2018-07-28T10:57:55.982Z,99285.47
2018-07-28T11:00:25.058Z,99290.59
2018-07-28T11:02:54.036Z,99287.20
2018-07-28T11:05:22.999Z,99285.39
2018-07-28T11:07:52.057Z,99282.73
2018-07-28T11:10:21.006Z,99266.19
2018-07-28T11:12:50.132Z,99272.88
2018-07-28T11:15:19.149Z,99271.81
2018-07-28T11:17:48.289Z,99264.22
2018-07-28T11:20:17.252Z,99264.61
2018-07-28T11:22:46.189Z,99261.77
2018-07-28T11:25:15.143Z,99254.95
2018-07-28T11:27:44.177Z,99253.30
2018-07-28T11:30:13.258Z,99245.23
2018-07-28T11:32:53.132Z,99251.20
2018-07-28T11:35:33.018Z,99247.41
2018-07-28T11:38:24.926Z,99246.48
2018-07-28T11:41:05.028Z,99242.08
2018-07-28T11:43:45.126Z,99244.66
2018-07-28T11:46:14.255Z,99236.28
2018-07-28T11:48:43.213Z,99233.03
2018-07-28T11:51:12.248Z,99237.42
2018-07-28T11:53:41.621Z,99232.55
2018-07-28T11:56:10.624Z,99234.48
2018-07-28T11:58:39.625Z,99228.49
2018-07-28T12:01:08.644Z,99233.13
2018-07-28T12:03:37.634Z,99232.48
2018-07-28T12:06:06.779Z,99234.77
2018-07-28T12:08:35.856Z,99227.62
2018-07-28T12:11:04.872Z,99228.69
2018-07-28T12:13:33.831Z,99229.92
2018-07-28T12:16:02.926Z,99226.89
2018-07-28T12:18:31.955Z,99224.25
2018-07-28T12:21:00.940Z,99225.73
2018-07-28T12:23:29.937Z,99222.71
2018-07-28T12:25:58.883Z,99221.27
2018-07-28T12:28:27.885Z,99213.20
2018-07-28T12:30:56.904Z,99211.91
2018-07-28T12:33:25.854Z,99209.75
2018-07-28T12:35:55.011Z,99200.48
2018-07-28T12:38:23.982Z,99203.23
2018-07-28T12:40:52.930Z,99197.97
2018-07-28T12:43:21.898Z,99190.14
2018-07-28T12:45:50.831Z,99194.76
2018-07-28T12:48:19.840Z,99197.41
2018-07-28T12:50:48.780Z,99190.38
2018-07-28T12:53:17.787Z,99193.81
2018-07-28T12:55:46.780Z,99183.32
2018-07-28T12:58:15.774Z,99191.59
2018-07-28T13:00:44.736Z,99191.70
2018-07-28T13:03:13.737Z,99187.36
2018-07-28T13:05:42.752Z,99189.67
2018-07-28T13:08:11.692Z,99190.70
2018-07-28T13:10:40.725Z,99181.89
2018-07-28T13:13:09.651Z,99184.30
2018-07-28T13:15:38.620Z,99192.02
2018-07-28T13:18:07.604Z,99177.89
2018-07-28T13:20:36.694Z,99182.68
2018-07-28T13:23:05.750Z,99191.61
2018-07-28T13:25:34.719Z,99191.62
2018-07-28T13:28:03.732Z,99194.81
2018-07-28T13:30:32.684Z,99194.81
2018-07-28T13:33:01.645Z,99198.38
2018-07-28T13:35:30.629Z,99197.41
2018-07-28T13:37:59.649Z,99204.11
2018-07-28T13:40:28.684Z,99206.07
2018-07-28T13:42:57.632Z,99193.27
2018-07-28T13:45:26.587Z,99201.33
2018-07-28T13:47:55.640Z,99206.92
2018-07-28T13:50:24.601Z,99206.98
2018-07-28T13:52:53.542Z,99206.56
2018-07-28T13:55:22.566Z,99208.30
2018-07-28T13:57:51.511Z,99203.55
2018-07-28T14:00:20.519Z,99189.86
2018-07-28T14:02:49.595Z,99198.31
2018-07-28T14:05:18.687Z,99201.53
2018-07-28T14:07:47.688Z,99202.52
2018-07-28T14:10:16.715Z,99199.45
2018-07-28T14:12:45.808Z,99196.95
2018-07-28T14:15:14.894Z,99193.73
2018-07-28T14:17:43.885Z,99190.88
2018-07-28T14:20:12.899Z,99197.81
2018-07-28T14:22:42.048Z,99198.46
2018-07-28T14:25:11.068Z,99198.99
2018-07-28T14:27:40.043Z,99198.47
2018-07-28T14:30:09.021Z,99203.52
2018-07-28T14:32:38.029Z,99204.47
2018-07-28T14:35:07.069Z,99204.85
2018-07-28T14:37:36.037Z,99206.20
2018-07-28T14:40:05.016Z,99203.70
2018-07-28T14:42:34.093Z,99204.00
2018-07-28T14:45:03.116Z,99209.16
2018-07-28T14:47:32.071Z,99200.77
2018-07-28T14:50:02.028Z,99201.42
2018-07-28T14:52:31.028Z,99204.04
2018-07-28T14:55:00.775Z,99189.73
2018-07-28T14:57:30.328Z,99189.81
2018-07-28T15:00:01.651Z,99185.80
2018-07-28T15:02:30.684Z,99195.62
2018-07-28T15:04:59.746Z,99197.91
2018-07-28T15:07:28.887Z,99193.94
2018-07-28T15:10:00.344Z,99194.88
2018-07-28T15:12:31.206Z,99186.17
2018-07-28T15:15:00.240Z,99189.81
2018-07-28T15:17:29.345Z,99186.59
2018-07-28T15:19:58.321Z,99189.81
2018-07-28T15:22:27.291Z,99190.76
2018-07-28T15:24:56.440Z,99192.15
2018-07-28T15:27:25.389Z,99187.64
2018-07-28T15:29:54.363Z,99182.81
2018-07-28T15:32:23.369Z,99182.13
2018-07-28T15:34:52.336Z,99175.41
2018-07-28T15:37:21.364Z,99170.91
2018-07-28T15:39:50.542Z,99173.56
2018-07-28T15:42:19.491Z,99171.34
2018-07-28T15:44:48.465Z,99165.77
2018-07-28T15:47:17.447Z,99163.11
2018-07-28T15:49:46.717Z,99163.91
2018-07-28T15:52:15.744Z,99160.16
2018-07-28T15:54:45.124Z,99158.84
2018-07-28T15:57:14.152Z,99153.84
2018-07-28T15:59:43.186Z,99147.52
2018-07-28T16:02:12.361Z,99148.37
2018-07-28T16:04:41.433Z,99146.46
2018-07-28T16:07:10.736Z,99159.07
2018-07-28T16:09:39.927Z,99136.95
2018-07-28T16:12:08.885Z,99160.73
2018-07-28T16:14:37.940Z,99158.73
2018-07-28T16:17:06.977Z,99161.87
2018-07-28T16:19:35.964Z,99162.27
2018-07-28T16:22:04.919Z,99164.64
2018-07-28T16:24:33.957Z,99171.55
2018-07-28T16:27:03.038Z,99173.19
2018-07-28T16:29:32.004Z,99181.98
2018-07-28T16:32:01.382Z,99184.63
2018-07-28T16:34:31.413Z,99184.72
2018-07-28T16:37:00.673Z,99187.88
2018-07-28T16:39:29.650Z,99186.47
2018-07-28T16:41:58.621Z,99180.18
2018-07-28T16:44:27.617Z,99191.80
2018-07-28T16:46:56.654Z,99181.95
2018-07-28T16:49:25.692Z,99193.62
2018-07-28T16:51:54.720Z,99195.30
2018-07-28T16:54:23.874Z,99192.80
2018-07-28T16:56:52.911Z,99193.97
2018-07-28T16:59:21.991Z,99205.92
2018-07-28T17:01:51.099Z,99207.05
2018-07-28T17:04:20.135Z,99204.45
2018-07-28T17:06:49.201Z,99212.48
2018-07-28T17:09:18.228Z,99219.73
2018-07-28T17:11:47.192Z,99220.42
2018-07-28T17:14:16.298Z,99220.46
2018-07-28T17:16:45.426Z,99224.87
2018-07-28T17:19:14.416Z,99226.29
2018-07-28T17:21:43.392Z,99225.06
2018-07-28T17:24:12.403Z,99228.84
2018-07-28T17:26:41.421Z,99231.17
2018-07-28T17:29:10.426Z,99232.17
2018-07-28T17:31:39.449Z,99243.48
2018-07-28T17:34:08.439Z,99239.87
2018-07-28T17:36:37.537Z,99245.23
2018-07-28T17:39:08.191Z,99250.56
2018-07-28T17:41:37.212Z,99247.34
2018-07-28T17:44:06.232Z,99249.61
2018-07-28T17:46:35.278Z,99254.90
2018-07-28T17:49:04.411Z,99236.03
2018-07-28T17:51:33.557Z,99250.66
2018-07-28T17:54:02.522Z,99248.61
2018-07-28T17:56:31.554Z,99246.81
2018-07-28T17:59:00.585Z,99255.80
2018-07-28T18:01:29.659Z,99251.16
2018-07-28T18:03:58.601Z,99251.21
2018-07-28T18:06:27.633Z,99250.69
2018-07-28T18:08:56.598Z,99255.78
2018-07-28T18:11:25.548Z,99258.53
2018-07-28T18:13:54.527Z,99262.74
2018-07-28T18:16:23.561Z,99261.41
2018-07-28T18:18:52.623Z,99264.23
2018-07-28T18:21:21.642Z,99270.03
2018-07-28T18:23:50.637Z,99273.89
2018-07-28T18:26:19.652Z,99276.09
2018-07-28T18:28:48.708Z,99281.00
2018-07-28T18:31:17.749Z,99280.52
2018-07-28T18:33:46.724Z,99285.79
2018-07-28T18:36:15.679Z,99283.32
2018-07-28T18:38:44.713Z,99291.01
2018-07-28T18:41:13.691Z,99291.66
2018-07-28T18:43:42.676Z,99287.86
2018-07-28T18:46:11.799Z,99290.00
2018-07-28T18:48:40.824Z,99292.95
2018-07-28T18:51:09.957Z,99284.30
2018-07-28T18:53:38.983Z,99295.12
2018-07-28T18:56:08.105Z,99292.44
2018-07-28T18:58:37.142Z,99291.17
2018-07-28T19:01:06.336Z,99290.69
2018-07-28T19:03:35.427Z,99286.33
2018-07-28T19:06:04.456Z,99287.20
2018-07-28T19:08:33.495Z,99283.93
2018-07-28T19:11:02.540Z,99283.45
2018-07-28T19:13:36.489Z,99283.76
2018-07-28T19:16:05.668Z,99291.45
2018-07-28T19:18:39.701Z,99286.26
2018-07-28T19:21:08.728Z,99273.95
2018-07-28T19:23:42.696Z,99284.91
2018-07-28T19:26:11.769Z,99276.69
2018-07-28T19:28:45.842Z,99280.56
2018-07-28T19:31:14.886Z,99289.33
2018-07-28T19:33:43.876Z,99288.80
2018-07-28T19:36:18.023Z,99290.70
2018-07-28T19:38:47.005Z,99287.42
2018-07-28T19:41:15.992Z,99284.39
2018-07-28T19:43:45.015Z,99291.28
2018-07-28T19:46:14.075Z,99280.29
2018-07-28T19:48:43.157Z,99288.51
2018-07-28T19:51:12.270Z,99286.61
2018-07-28T19:53:41.306Z,99282.76
2018-07-28T19:56:10.337Z,99282.20
2018-07-28T19:58:39.368Z,99286.61
2018-07-28T20:01:08.508Z,99286.59
2018-07-28T20:03:37.579Z,99287.41
2018-07-28T20:06:06.661Z,99285.50
2018-07-28T20:08:35.647Z,99288.77
2018-07-28T20:11:04.647Z,99288.25
2018-07-28T20:13:33.621Z,99293.45
2018-07-28T20:16:02.616Z,99294.81
2018-07-28T20:18:31.696Z,99287.69
2018-07-28T20:21:00.666Z,99281.93
2018-07-28T20:23:29.728Z,99295.92
2018-07-28T20:25:58.821Z,99297.56
2018-07-28T20:28:27.941Z,99303.05
2018-07-28T20:30:56.980Z,99302.20
2018-07-28T20:33:26.017Z,99303.87
2018-07-28T20:35:55.048Z,99301.41
2018-07-28T20:38:24.525Z,99303.59
2018-07-28T20:40:53.504Z,99304.41
2018-07-28T20:43:22.480Z,99304.16
2018-07-28T20:45:51.503Z,99306.91
2018-07-28T20:48:20.613Z,99313.47
2018-07-28T20:50:49.583Z,99311.27
2018-07-28T20:53:18.576Z,99311.28
2018-07-28T20:55:47.653Z,99313.19
2018-07-28T20:58:16.658Z,99323.88
2018-07-28T21:00:45.758Z,99315.94
2018-07-28T21:03:14.863Z,99321.70
2018-07-28T21:05:43.895Z,99325.00
2018-07-28T21:08:12.932Z,99325.27
2018-07-28T21:10:41.972Z,99314.55
2018-07-28T21:13:10.952Z,99317.31
2018-07-28T21:15:40.000Z,99318.13
2018-07-28T21:18:09.154Z,99320.03
2018-07-28T21:20:38.362Z,99319.50
2018-07-28T21:23:07.404Z,99307.69
2018-07-28T21:25:36.438Z,99296.18
2018-07-28T21:28:05.611Z,99299.72
2018-07-28T21:30:34.676Z,99286.56
2018-07-28T21:33:03.671Z,99288.48
2018-07-28T21:35:32.807Z,99287.34
2018-07-28T21:38:01.774Z,99289.28
2018-07-28T21:40:30.756Z,99288.72
2018-07-28T21:42:59.787Z,99285.42
2018-07-28T21:45:28.818Z,99277.47
2018-07-28T21:47:57.804Z,99273.89
2018-07-28T21:50:26.776Z,99276.64
2018-07-28T21:52:55.795Z,99276.91
2018-07-28T21:55:24.773Z,99278.56
2018-07-28T21:57:53.878Z,99270.89
2018-07-28T22:00:22.867Z,99265.14
2018-07-28T22:02:51.856Z,99264.05
2018-07-28T22:05:21.354Z,99261.29
2018-07-28T22:07:51.804Z,99263.47
2018-07-28T22:10:20.757Z,99264.58
2018-07-28T22:12:49.720Z,99259.92
2018-07-28T22:15:18.712Z,99256.63
2018-07-28T22:17:47.693Z,99254.72
2018-07-28T22:20:16.672Z,99257.16
2018-07-28T22:22:45.638Z,99250.86
2018-07-28T22:25:14.666Z,99253.87
2018-07-28T22:27:43.699Z,99251.16
2018-07-28T22:30:12.684Z,99248.68
2018-07-28T22:32:41.712Z,99253.33
2018-07-28T22:35:10.922Z,99253.60
2018-07-28T22:37:40.009Z,99258.80
2018-07-28T22:40:09.049Z,99257.44
2018-07-28T22:42:46.345Z,99259.08
2018-07-28T22:45:15.345Z,99258.82
2018-07-28T22:47:44.432Z,99265.11
2018-07-28T22:50:13.469Z,99268.95
2018-07-28T22:52:42.682Z,99260.20
2018-07-28T22:55:11.699Z,99260.20
2018-07-28T22:57:40.684Z,99268.14
2018-07-28T23:00:09.755Z,99268.95
2018-07-28T23:02:38.825Z,99270.60
2018-07-28T23:05:08.433Z,99272.53
2018-07-28T23:07:37.529Z,99264.31
2018-07-28T23:10:06.661Z,99268.43
2018-07-28T23:12:35.737Z,99270.63
2018-07-28T23:15:04.777Z,99270.36
2018-07-28T23:17:33.847Z,99267.87
2018-07-28T23:20:02.909Z,99270.89
2018-07-28T23:22:31.937Z,99272.83
2018-07-28T23:25:01.023Z,99277.23
2018-07-28T23:27:30.025Z,99279.98
2018-07-28T23:29:59.081Z,99276.17
2018-07-28T23:32:28.169Z,99273.95
2018-07-28T23:34:57.213Z,99274.52
2018-07-28T23:37:26.261Z,99276.45
2018-07-28T23:39:55.232Z,99278.38
2018-07-28T23:42:24.228Z,99278.90
2018-07-28T23:44:53.204Z,99275.89
2018-07-28T23:47:22.254Z,99277.80
2018-07-28T23:49:51.280Z,99278.38
2018-07-28T23:52:20.394Z,99272.05
2018-07-28T23:54:49.436Z,99275.63
2018-07-28T23:57:18.505Z,99282.17
2018-07-28T23:59:47.491Z,99277.20
